(°C)
10°
15°
20°
24°
(°C)
-0°
-0°
12°
17°
20°
SE
SE
SE
SSE
S
SSW
SW
(km/h)
7-12
7-11
7-11
6-11
6-11
6-13
8-16
(mm)
0
0
0
0
0
0
0
(%)
0
0
0
0
0
0
0

Wysokość słońca

/ -12.2°
sun-icon
UV 14
05:31
20:39
Sierp przybywający (58°)
10:15
00:13

METAR dla Walden (K33V)

Czas Warunki Temperatura/
Punkt rosy
Wiatr Widzialność Pogoda Chmury Ciśn. atm. Zmień Surowy
VFR 4.5°C / -3.3°C 130º 7kt >10km - Clear - K33V 150955Z AUTO 13007KT 10SM CLR 05/M03 A3045 RMK AO2 T00451033
VFR 5.5°C / -5.4°C 130º 8kt >10km - Clear - K33V 150935Z AUTO 13008KT 10SM CLR 06/M05 A3044 RMK AO2 T00551054
VFR 5.3°C / -3.7°C 110º 5kt >10km - Clear - K33V 150915Z AUTO 11005KT 10SM CLR 05/M04 A3045 RMK AO2 T00531037
VFR 8.3°C / -4.6°C 120º 7kt >10km - Clear - K33V 150855Z AUTO 12007KT 10SM CLR 08/M05 A3044 RMK AO2 T00831046
VFR 5.4°C / -2.4°C 120º 8kt >10km - Clear - K33V 150835Z AUTO 12008KT 10SM CLR 05/M02 A3045 RMK AO2 T00541024
VFR 9.7°C / -3.7°C 190º 5kt >10km - Clear - K33V 150815Z AUTO 19005KT 10SM CLR 10/M04 A3044 RMK AO2 T00971037
VFR 8°C / -2.8°C 150º 4kt >10km - Clear - K33V 150755Z AUTO 15004KT 10SM CLR 08/M03 A3044 RMK AO2 T00801028
VFR 9.2°C / -2.5°C 140º 6kt >10km - Clear - K33V 150735Z AUTO 14006KT 10SM CLR 09/M02 A3044 RMK AO2 T00921025
VFR 6.2°C / -0.3°C 110º 3kt >10km - Clear - K33V 150715Z AUTO 11003KT 10SM CLR 06/00 A3044 RMK AO2 T00621003
VFR 8.1°C / -1.5°C 70º 4kt >10km - Clear - K33V 150655Z AUTO 07004KT 10SM CLR 08/M01 A3044 RMK AO2 T00811015
VFR 9.7°C / 0°C variable 0kt >10km - Clear - K33V 150635Z AUTO 00000KT 10SM CLR 10/00 A3044 RMK AO2 T00970000
VFR 9.7°C / -0.7°C 130º 8kt >10km - Clear - K33V 150615Z AUTO 13008KT 10SM CLR 10/M01 A3044 RMK AO2 T00971007
VFR 9.7°C / -1.9°C 120º 7kt >10km - Clear - K33V 150555Z AUTO 12007KT 10SM CLR 10/M02 A3044 RMK AO2 T00971019 10286 20097
VFR 9.7°C / -0.2°C 120º 12kt >10km - Clear - K33V 150535Z AUTO 12012KT 10SM CLR 10/00 A3044 RMK AO2 T00971002
VFR 9.7°C / -0.4°C 120º 7kt >10km - Clear - K33V 150515Z AUTO 12007KT 10SM CLR 10/00 A3044 RMK AO2 T00971004
VFR 11.1°C / -2.6°C 120º 6kt >10km - Clear - K33V 150455Z AUTO 12006KT 10SM CLR 11/M03 A3044 RMK AO2 T01111026
VFR 11.9°C / 0.8°C 150º 6kt >10km - Clear - K33V 150435Z AUTO 15006KT 10SM CLR 12/01 A3044 RMK AO2 T01190008
VFR 12.8°C / 0.4°C 130º 6kt >10km - Clear - K33V 150415Z AUTO 13006KT 10SM CLR 13/00 A3043 RMK AO2 T01280004
VFR 14°C / -0.2°C 100º 4kt >10km - Clear - K33V 150355Z AUTO 10004KT 10SM CLR 14/00 A3043 RMK AO2 T01401002 403080041
VFR 23.1°C / °C 320º 4kt >10km - Clear - K33V 150315Z AUTO 32004KT 10SM CLR 23/M11 A3041 RMK AO2 T02311108
VFR 23.7°C / °C 310º 3kt >10km - Clear - K33V 150255Z AUTO 31003KT 10SM CLR 24/M10 A3041 RMK AO2 T02371105
VFR 23.7°C / -9.4°C 310º 4kt >10km - Clear - K33V 150235Z AUTO 31004KT 10SM CLR 24/M09 A3041 RMK AO2 T02371094
VFR 23.7°C / -8.1°C 310º 5kt >10km - Clear - K33V 150215Z AUTO 31005KT 10SM CLR 24/M08 A3041 RMK AO2 T02371081
VFR 25.2°C / -9°C 290º 4kt >10km - Clear - K33V 150155Z AUTO 29004KT 10SM CLR 25/M09 A3041 RMK AO2 T02521090

VFR

4.5°C / -3.3°C

[Więcej]
Wiatr 130º 7kt
Widzialność >10km
Pogoda -
Chmury Clear
Ciśn. atm.
Zmień -
Surowy K33V 150955Z AUTO 13007KT 10SM CLR 05/M03 A3045 RMK AO2 T00451033

VFR

5.5°C / -5.4°C

[Więcej]
Wiatr 130º 8kt
Widzialność >10km
Pogoda -
Chmury Clear
Ciśn. atm.
Zmień -
Surowy K33V 150935Z AUTO 13008KT 10SM CLR 06/M05 A3044 RMK AO2 T00551054

VFR

5.3°C / -3.7°C

[Więcej]
Wiatr 110º 5kt
Widzialność >10km
Pogoda -
Chmury Clear
Ciśn. atm.
Zmień -
Surowy K33V 150915Z AUTO 11005KT 10SM CLR 05/M04 A3045 RMK AO2 T00531037

VFR

8.3°C / -4.6°C

[Więcej]
Wiatr 120º 7kt
Widzialność >10km
Pogoda -
Chmury Clear
Ciśn. atm.
Zmień -
Surowy K33V 150855Z AUTO 12007KT 10SM CLR 08/M05 A3044 RMK AO2 T00831046

VFR

5.4°C / -2.4°C

[Więcej]
Wiatr 120º 8kt
Widzialność >10km
Pogoda -
Chmury Clear
Ciśn. atm.
Zmień -
Surowy K33V 150835Z AUTO 12008KT 10SM CLR 05/M02 A3045 RMK AO2 T00541024

VFR

9.7°C / -3.7°C

[Więcej]
Wiatr 190º 5kt
Widzialność >10km
Pogoda -
Chmury Clear
Ciśn. atm.
Zmień -
Surowy K33V 150815Z AUTO 19005KT 10SM CLR 10/M04 A3044 RMK AO2 T00971037

VFR

8°C / -2.8°C

[Więcej]
Wiatr 150º 4kt
Widzialność >10km
Pogoda -
Chmury Clear
Ciśn. atm.
Zmień -
Surowy K33V 150755Z AUTO 15004KT 10SM CLR 08/M03 A3044 RMK AO2 T00801028

VFR

9.2°C / -2.5°C

[Więcej]
Wiatr 140º 6kt
Widzialność >10km
Pogoda -
Chmury Clear
Ciśn. atm.
Zmień -
Surowy K33V 150735Z AUTO 14006KT 10SM CLR 09/M02 A3044 RMK AO2 T00921025

VFR

6.2°C / -0.3°C

[Więcej]
Wiatr 110º 3kt
Widzialność >10km
Pogoda -
Chmury Clear
Ciśn. atm.
Zmień -
Surowy K33V 150715Z AUTO 11003KT 10SM CLR 06/00 A3044 RMK AO2 T00621003

VFR

8.1°C / -1.5°C

[Więcej]
Wiatr 70º 4kt
Widzialność >10km
Pogoda -
Chmury Clear
Ciśn. atm.
Zmień -
Surowy K33V 150655Z AUTO 07004KT 10SM CLR 08/M01 A3044 RMK AO2 T00811015

VFR

9.7°C / 0°C

[Więcej]
Wiatr variable 0kt
Widzialność >10km
Pogoda -
Chmury Clear
Ciśn. atm.
Zmień -
Surowy K33V 150635Z AUTO 00000KT 10SM CLR 10/00 A3044 RMK AO2 T00970000

VFR

9.7°C / -0.7°C

[Więcej]
Wiatr 130º 8kt
Widzialność >10km
Pogoda -
Chmury Clear
Ciśn. atm.
Zmień -
Surowy K33V 150615Z AUTO 13008KT 10SM CLR 10/M01 A3044 RMK AO2 T00971007

VFR

9.7°C / -1.9°C

[Więcej]
Wiatr 120º 7kt
Widzialność >10km
Pogoda -
Chmury Clear
Ciśn. atm.
Zmień -
Surowy K33V 150555Z AUTO 12007KT 10SM CLR 10/M02 A3044 RMK AO2 T00971019 10286 20097

VFR

9.7°C / -0.2°C

[Więcej]
Wiatr 120º 12kt
Widzialność >10km
Pogoda -
Chmury Clear
Ciśn. atm.
Zmień -
Surowy K33V 150535Z AUTO 12012KT 10SM CLR 10/00 A3044 RMK AO2 T00971002

VFR

9.7°C / -0.4°C

[Więcej]
Wiatr 120º 7kt
Widzialność >10km
Pogoda -
Chmury Clear
Ciśn. atm.
Zmień -
Surowy K33V 150515Z AUTO 12007KT 10SM CLR 10/00 A3044 RMK AO2 T00971004

VFR

11.1°C / -2.6°C

[Więcej]
Wiatr 120º 6kt
Widzialność >10km
Pogoda -
Chmury Clear
Ciśn. atm.
Zmień -
Surowy K33V 150455Z AUTO 12006KT 10SM CLR 11/M03 A3044 RMK AO2 T01111026

VFR

11.9°C / 0.8°C

[Więcej]
Wiatr 150º 6kt
Widzialność >10km
Pogoda -
Chmury Clear
Ciśn. atm.
Zmień -
Surowy K33V 150435Z AUTO 15006KT 10SM CLR 12/01 A3044 RMK AO2 T01190008

VFR

12.8°C / 0.4°C

[Więcej]
Wiatr 130º 6kt
Widzialność >10km
Pogoda -
Chmury Clear
Ciśn. atm.
Zmień -
Surowy K33V 150415Z AUTO 13006KT 10SM CLR 13/00 A3043 RMK AO2 T01280004

VFR

14°C / -0.2°C

[Więcej]
Wiatr 100º 4kt
Widzialność >10km
Pogoda -
Chmury Clear
Ciśn. atm.
Zmień -
Surowy K33V 150355Z AUTO 10004KT 10SM CLR 14/00 A3043 RMK AO2 T01401002 403080041

VFR

23.1°C / °C

[Więcej]
Wiatr 320º 4kt
Widzialność >10km
Pogoda -
Chmury Clear
Ciśn. atm.
Zmień -
Surowy K33V 150315Z AUTO 32004KT 10SM CLR 23/M11 A3041 RMK AO2 T02311108

VFR

23.7°C / °C

[Więcej]
Wiatr 310º 3kt
Widzialność >10km
Pogoda -
Chmury Clear
Ciśn. atm.
Zmień -
Surowy K33V 150255Z AUTO 31003KT 10SM CLR 24/M10 A3041 RMK AO2 T02371105

VFR

23.7°C / -9.4°C

[Więcej]
Wiatr 310º 4kt
Widzialność >10km
Pogoda -
Chmury Clear
Ciśn. atm.
Zmień -
Surowy K33V 150235Z AUTO 31004KT 10SM CLR 24/M09 A3041 RMK AO2 T02371094

VFR

23.7°C / -8.1°C

[Więcej]
Wiatr 310º 5kt
Widzialność >10km
Pogoda -
Chmury Clear
Ciśn. atm.
Zmień -
Surowy K33V 150215Z AUTO 31005KT 10SM CLR 24/M08 A3041 RMK AO2 T02371081

VFR

25.2°C / -9°C

[Więcej]
Wiatr 290º 4kt
Widzialność >10km
Pogoda -
Chmury Clear
Ciśn. atm.
Zmień -
Surowy K33V 150155Z AUTO 29004KT 10SM CLR 25/M09 A3041 RMK AO2 T02521090

Aktualne zdjęcia satelitarne dla Walden, Stany Zjednoczone

Wskaźnik lokalizacji znajduje się na Walden. [Więcej]

Obraz satelitarny w czasie rzeczywistym łączy światło widzialne w ciągu dnia z promieniowaniem podczerwonym w nocy. W nocy obraz nie jest ciemny, ponieważ promieniowanie podczerwone może wykrywać różnice temperatur. Niestety niskie chmury i mgłę trudno odróżnić od temperatury gruntu, przez co mogą być prawie niewidoczne w nocy. Zdjęcia satelitarne Meteosat dla Europy są aktualizowane w czasie rzeczywistym co 5 minut. Obrazy GOES-16/GOES-17 (Ameryka Północna i Południowa) oraz Himawari (Azja) są aktualizowane co 10 minut.

Radar i prognoza opadów na teraz dla Walden

Wskaźnik lokalizacji jest umieszczony na Walden. Animacja przedstawia radar opadów dla ostatniej godziny, jak również 1h prognozę pogody. Mżawka i lekkie opady mogą być niewidoczne na radarze. Intensywność opadów jest oznaczona kolorami od jasnoniebieskiego do ciemnofioletowego.